QLK365D YBRK-YBBN
Flight info
| Callsign | QLK365D |
|---|---|
| Flight time | 1h 1m |
| Altitude | 19000 |
| Route | RK V111 BUDGI V99 SUSGI V307 MORBI |
| Aircraft | DH8D/M-SDE2E3FGRY/H |
Departure
| Time | 2026-04-20 03:46 |
|---|---|
| Airport | Rockhampton Airport (YBRK) |
Arrival
| Time | 2026-04-20 04:47 |
|---|---|
| Airport | Brisbane International Airport (YBBN) |
| Time | Latitude | Longitude | Altitude | Speed | Heading |
|---|---|---|---|---|---|
| 2026-04-20 03:42 | -23.37289 | 150.47217 | 45 ft | 33 kts | 336° |
| 2026-04-20 03:43 | -23.37168 | 150.47163 | 45 ft | 18 kts | 339° |
| 2026-04-20 03:43 | -23.37040 | 150.47108 | 44 ft | 20 kts | 336° |
| 2026-04-20 03:43 | -23.36923 | 150.47025 | 45 ft | 15 kts | 335° |
| 2026-04-20 03:43 | -23.36905 | 150.47023 | 45 ft | 0 kts | 25° |
| 2026-04-20 03:44 | -23.36899 | 150.47028 | 45 ft | 3 kts | 36° |
| 2026-04-20 03:44 | -23.36891 | 150.47055 | 45 ft | 4 kts | 133° |
| 2026-04-20 03:44 | -23.36939 | 150.47064 | 45 ft | 10 kts | 159° |
| 2026-04-20 03:44 | -23.36945 | 150.47066 | 45 ft | 0 kts | 158° |
| 2026-04-20 03:45 | -23.36957 | 150.47072 | 45 ft | 0 kts | 158° |
| 2026-04-20 03:45 | -23.36982 | 150.47082 | 45 ft | 22 kts | 159° |
| 2026-04-20 03:45 | -23.37315 | 150.47231 | 46 ft | 82 kts | 157° |
| 2026-04-20 03:45 | -23.38154 | 150.47603 | 58 ft | 168 kts | 157° |
| 2026-04-20 03:46 | -23.39337 | 150.48082 | 627 ft | 191 kts | 158° |
| 2026-04-20 03:46 | -23.40627 | 150.48592 | 1416 ft | 209 kts | 157° |
| 2026-04-20 03:46 | -23.42020 | 150.49149 | 2271 ft | 222 kts | 158° |
| 2026-04-20 03:46 | -23.43447 | 150.49736 | 3411 ft | 220 kts | 156° |
| 2026-04-20 03:47 | -23.44889 | 150.50360 | 4380 ft | 225 kts | 156° |
| 2026-04-20 03:47 | -23.46337 | 150.50995 | 5148 ft | 242 kts | 156° |
| 2026-04-20 03:47 | -23.48090 | 150.51759 | 5001 ft | 288 kts | 158° |
| 2026-04-20 03:47 | -23.50145 | 150.52124 | 4901 ft | 305 kts | 180° |
| 2026-04-20 03:48 | -23.52272 | 150.51964 | 4994 ft | 309 kts | 182° |
| 2026-04-20 03:48 | -23.54401 | 150.51822 | 5213 ft | 307 kts | 182° |
| 2026-04-20 03:48 | -23.56550 | 150.51678 | 5196 ft | 311 kts | 182° |
| 2026-04-20 03:48 | -23.58650 | 150.51520 | 5936 ft | 276 kts | 181° |
| 2026-04-20 03:49 | -23.60367 | 150.51421 | 6918 ft | 229 kts | 180° |
| 2026-04-20 03:49 | -23.61952 | 150.51338 | 7039 ft | 229 kts | 182° |
| 2026-04-20 03:49 | -23.63567 | 150.51271 | 7094 ft | 233 kts | 180° |
| 2026-04-20 03:49 | -23.65201 | 150.51160 | 7388 ft | 238 kts | 182° |
| 2026-04-20 03:50 | -23.66868 | 150.51048 | 7763 ft | 240 kts | 182° |
| 2026-04-20 03:50 | -23.68530 | 150.50944 | 8115 ft | 243 kts | 182° |
| 2026-04-20 03:50 | -23.70212 | 150.50842 | 8601 ft | 237 kts | 182° |
| 2026-04-20 03:50 | -23.71880 | 150.50743 | 8922 ft | 241 kts | 182° |
| 2026-04-20 03:51 | -23.73543 | 150.50644 | 9315 ft | 240 kts | 182° |
| 2026-04-20 03:51 | -23.75213 | 150.50546 | 9651 ft | 242 kts | 182° |
| 2026-04-20 03:51 | -23.76900 | 150.50568 | 9787 ft | 244 kts | 169° |
| 2026-04-20 03:51 | -23.78442 | 150.51300 | 10147 ft | 242 kts | 152° |
| 2026-04-20 03:52 | -23.79921 | 150.52219 | 10378 ft | 245 kts | 152° |
| 2026-04-20 03:52 | -23.81398 | 150.53143 | 10607 ft | 250 kts | 151° |
| 2026-04-20 03:52 | -23.82918 | 150.54100 | 10986 ft | 247 kts | 151° |
| 2026-04-20 03:52 | -23.84402 | 150.55035 | 11220 ft | 251 kts | 151° |
| 2026-04-20 03:53 | -23.85926 | 150.55997 | 11556 ft | 250 kts | 151° |
| 2026-04-20 03:53 | -23.87447 | 150.56957 | 11769 ft | 253 kts | 151° |
| 2026-04-20 03:53 | -23.88954 | 150.57907 | 12085 ft | 254 kts | 151° |
| 2026-04-20 03:53 | -23.90497 | 150.58882 | 12343 ft | 255 kts | 151° |
| 2026-04-20 03:54 | -23.92041 | 150.59857 | 12664 ft | 254 kts | 152° |
| 2026-04-20 03:54 | -23.93599 | 150.60841 | 12874 ft | 257 kts | 152° |
| 2026-04-20 03:54 | -23.95145 | 150.61818 | 13092 ft | 260 kts | 151° |
| 2026-04-20 03:54 | -23.96720 | 150.62814 | 13327 ft | 262 kts | 151° |
| 2026-04-20 03:55 | -23.98292 | 150.63808 | 13566 ft | 263 kts | 152° |
| 2026-04-20 03:55 | -23.99892 | 150.64819 | 13800 ft | 263 kts | 152° |
| 2026-04-20 03:55 | -24.01475 | 150.65822 | 14021 ft | 266 kts | 152° |
| 2026-04-20 03:55 | -24.03077 | 150.66835 | 14294 ft | 264 kts | 151° |
| 2026-04-20 03:56 | -24.04704 | 150.67865 | 14491 ft | 265 kts | 152° |
| 2026-04-20 03:56 | -24.06309 | 150.68881 | 14638 ft | 269 kts | 152° |
| 2026-04-20 03:56 | -24.07930 | 150.69908 | 14829 ft | 272 kts | 151° |
| 2026-04-20 03:56 | -24.09567 | 150.70946 | 15075 ft | 271 kts | 152° |
| 2026-04-20 03:57 | -24.11194 | 150.71977 | 15247 ft | 272 kts | 152° |
| 2026-04-20 03:57 | -24.12861 | 150.73035 | 15454 ft | 274 kts | 152° |
| 2026-04-20 03:57 | -24.14509 | 150.74078 | 15665 ft | 274 kts | 152° |
| 2026-04-20 03:57 | -24.16164 | 150.75128 | 15837 ft | 276 kts | 152° |
| 2026-04-20 03:58 | -24.17829 | 150.76186 | 16054 ft | 276 kts | 152° |
| 2026-04-20 03:58 | -24.19519 | 150.77257 | 16207 ft | 278 kts | 152° |
| 2026-04-20 03:58 | -24.21198 | 150.78323 | 16360 ft | 281 kts | 152° |
| 2026-04-20 03:58 | -24.22875 | 150.79390 | 16568 ft | 280 kts | 152° |
| 2026-04-20 03:59 | -24.24575 | 150.80469 | 16740 ft | 282 kts | 152° |
| 2026-04-20 03:59 | -24.26277 | 150.81551 | 16930 ft | 282 kts | 153° |
| 2026-04-20 03:59 | -24.27993 | 150.82642 | 17086 ft | 283 kts | 152° |
| 2026-04-20 03:59 | -24.29691 | 150.83722 | 17269 ft | 283 kts | 153° |
| 2026-04-20 04:00 | -24.31423 | 150.84824 | 17360 ft | 287 kts | 153° |
| 2026-04-20 04:00 | -24.33133 | 150.85912 | 17543 ft | 287 kts | 152° |
| 2026-04-20 04:00 | -24.34878 | 150.87022 | 17717 ft | 286 kts | 152° |
| 2026-04-20 04:00 | -24.36611 | 150.88126 | 17818 ft | 288 kts | 152° |
| 2026-04-20 04:01 | -24.38346 | 150.89230 | 17934 ft | 291 kts | 153° |
| 2026-04-20 04:01 | -24.40098 | 150.90347 | 18121 ft | 290 kts | 153° |
| 2026-04-20 04:01 | -24.41843 | 150.91460 | 18246 ft | 292 kts | 153° |
| 2026-04-20 04:01 | -24.43592 | 150.92574 | 18373 ft | 293 kts | 153° |
| 2026-04-20 04:02 | -24.45383 | 150.93716 | 18514 ft | 293 kts | 153° |
| 2026-04-20 04:02 | -24.47139 | 150.94836 | 18641 ft | 294 kts | 153° |
| 2026-04-20 04:02 | -24.48919 | 150.95973 | 18768 ft | 295 kts | 153° |
| 2026-04-20 04:02 | -24.50700 | 150.97110 | 18903 ft | 296 kts | 153° |
| 2026-04-20 04:03 | -24.52464 | 150.98236 | 19056 ft | 296 kts | 153° |
| 2026-04-20 04:03 | -24.54262 | 150.99385 | 19102 ft | 299 kts | 153° |
| 2026-04-20 04:03 | -24.56087 | 151.00549 | 19116 ft | 304 kts | 153° |
| 2026-04-20 04:03 | -24.57933 | 151.01729 | 19117 ft | 308 kts | 153° |
| 2026-04-20 04:04 | -24.59780 | 151.02908 | 19116 ft | 311 kts | 153° |
| 2026-04-20 04:04 | -24.61669 | 151.04117 | 19110 ft | 314 kts | 153° |
| 2026-04-20 04:04 | -24.63572 | 151.05335 | 19112 ft | 317 kts | 153° |
| 2026-04-20 04:04 | -24.65493 | 151.06564 | 19146 ft | 318 kts | 153° |
| 2026-04-20 04:05 | -24.67402 | 151.07787 | 19126 ft | 320 kts | 153° |
| 2026-04-20 04:05 | -24.69350 | 151.09035 | 19115 ft | 322 kts | 153° |
| 2026-04-20 04:05 | -24.71293 | 151.10281 | 19107 ft | 324 kts | 153° |
| 2026-04-20 04:05 | -24.73258 | 151.11542 | 19107 ft | 325 kts | 153° |
| 2026-04-20 04:06 | -24.75246 | 151.12816 | 19107 ft | 326 kts | 153° |
| 2026-04-20 04:06 | -24.75608 | 151.13049 | 19110 ft | 326 kts | 153° |
| 2026-04-20 04:06 | -24.75687 | 151.13100 | 19110 ft | 326 kts | 153° |
| 2026-04-20 04:06 | -24.77073 | 151.13989 | 19110 ft | 327 kts | 153° |
| 2026-04-20 04:07 | -24.79041 | 151.15251 | 19107 ft | 328 kts | 153° |
| 2026-04-20 04:07 | -24.81000 | 151.16509 | 19104 ft | 328 kts | 153° |
| 2026-04-20 04:07 | -24.82938 | 151.17812 | 19090 ft | 318 kts | 152° |
| 2026-04-20 04:07 | -24.84854 | 151.19031 | 19102 ft | 322 kts | 153° |
| 2026-04-20 04:08 | -24.86819 | 151.20274 | 19109 ft | 326 kts | 153° |
| 2026-04-20 04:08 | -24.88824 | 151.21553 | 19109 ft | 330 kts | 153° |
| 2026-04-20 04:08 | -24.90805 | 151.22821 | 19113 ft | 333 kts | 153° |
| 2026-04-20 04:08 | -24.92831 | 151.24120 | 19111 ft | 335 kts | 153° |
| 2026-04-20 04:09 | -24.94832 | 151.25404 | 19111 ft | 337 kts | 152° |
| 2026-04-20 04:09 | -24.96884 | 151.26723 | 19109 ft | 339 kts | 152° |
| 2026-04-20 04:09 | -24.98930 | 151.28040 | 19109 ft | 341 kts | 153° |
| 2026-04-20 04:09 | -25.00981 | 151.29361 | 19111 ft | 342 kts | 152° |
| 2026-04-20 04:10 | -25.03027 | 151.30679 | 19110 ft | 343 kts | 152° |
| 2026-04-20 04:10 | -25.05094 | 151.32011 | 19113 ft | 344 kts | 152° |
| 2026-04-20 04:10 | -25.07163 | 151.33345 | 19111 ft | 344 kts | 153° |
| 2026-04-20 04:10 | -25.09239 | 151.34685 | 19109 ft | 345 kts | 152° |
| 2026-04-20 04:11 | -25.11307 | 151.36020 | 19107 ft | 346 kts | 153° |
| 2026-04-20 04:11 | -25.13401 | 151.37372 | 19106 ft | 346 kts | 152° |
| 2026-04-20 04:11 | -25.15496 | 151.38727 | 19106 ft | 346 kts | 152° |
| 2026-04-20 04:11 | -25.17579 | 151.40073 | 19106 ft | 346 kts | 152° |
| 2026-04-20 04:12 | -25.19639 | 151.41405 | 19103 ft | 347 kts | 152° |
| 2026-04-20 04:12 | -25.21727 | 151.42757 | 19104 ft | 347 kts | 152° |
| 2026-04-20 04:12 | -25.23823 | 151.44113 | 19101 ft | 347 kts | 152° |
| 2026-04-20 04:12 | -25.25889 | 151.45450 | 19102 ft | 347 kts | 152° |
| 2026-04-20 04:13 | -25.27994 | 151.46814 | 19101 ft | 347 kts | 152° |
| 2026-04-20 04:13 | -25.30073 | 151.48161 | 19101 ft | 346 kts | 152° |
| 2026-04-20 04:13 | -25.32137 | 151.49499 | 19103 ft | 346 kts | 152° |
| 2026-04-20 04:13 | -25.34224 | 151.50853 | 19100 ft | 346 kts | 152° |
| 2026-04-20 04:14 | -25.36313 | 151.52208 | 19101 ft | 346 kts | 152° |
| 2026-04-20 04:14 | -25.38392 | 151.53557 | 19101 ft | 346 kts | 152° |
| 2026-04-20 04:14 | -25.40456 | 151.54897 | 19100 ft | 346 kts | 152° |
| 2026-04-20 04:14 | -25.42552 | 151.56258 | 19100 ft | 346 kts | 152° |
| 2026-04-20 04:15 | -25.44637 | 151.57614 | 19099 ft | 346 kts | 152° |
| 2026-04-20 04:15 | -25.46688 | 151.58946 | 19102 ft | 346 kts | 152° |
| 2026-04-20 04:15 | -25.48777 | 151.60306 | 19098 ft | 346 kts | 152° |
| 2026-04-20 04:15 | -25.50856 | 151.61658 | 19095 ft | 346 kts | 152° |
| 2026-04-20 04:16 | -25.52941 | 151.63014 | 19095 ft | 346 kts | 152° |
| 2026-04-20 04:16 | -25.55020 | 151.64368 | 19096 ft | 346 kts | 152° |
| 2026-04-20 04:16 | -25.57094 | 151.65720 | 19093 ft | 346 kts | 152° |
| 2026-04-20 04:16 | -25.59184 | 151.67099 | 19093 ft | 346 kts | 150° |
| 2026-04-20 04:17 | -25.61095 | 151.68703 | 19104 ft | 348 kts | 142° |
| 2026-04-20 04:17 | -25.62941 | 151.70438 | 19096 ft | 348 kts | 142° |
| 2026-04-20 04:17 | -25.64799 | 151.72189 | 19095 ft | 348 kts | 142° |
| 2026-04-20 04:17 | -25.66637 | 151.73920 | 19094 ft | 348 kts | 142° |
| 2026-04-20 04:18 | -25.68485 | 151.75659 | 19097 ft | 347 kts | 142° |
| 2026-04-20 04:18 | -25.70353 | 151.77414 | 19098 ft | 347 kts | 142° |
| 2026-04-20 04:18 | -25.72185 | 151.79135 | 19104 ft | 347 kts | 142° |
| 2026-04-20 04:18 | -25.74036 | 151.80873 | 19105 ft | 347 kts | 142° |
| 2026-04-20 04:19 | -25.75876 | 151.82600 | 19108 ft | 346 kts | 142° |
| 2026-04-20 04:19 | -25.77723 | 151.84335 | 19109 ft | 346 kts | 142° |
| 2026-04-20 04:19 | -25.79569 | 151.86069 | 19109 ft | 346 kts | 142° |
| 2026-04-20 04:19 | -25.81399 | 151.87787 | 19109 ft | 346 kts | 142° |
| 2026-04-20 04:20 | -25.83233 | 151.89510 | 19110 ft | 346 kts | 142° |
| 2026-04-20 04:20 | -25.85074 | 151.91240 | 19110 ft | 346 kts | 142° |
| 2026-04-20 04:20 | -25.86916 | 151.92972 | 19107 ft | 345 kts | 142° |
| 2026-04-20 04:20 | -25.88444 | 151.94408 | 19115 ft | 345 kts | 142° |
| 2026-04-20 04:21 | -25.90302 | 151.96156 | 19106 ft | 345 kts | 142° |
| 2026-04-20 04:21 | -25.92114 | 151.97861 | 19109 ft | 345 kts | 142° |
| 2026-04-20 04:21 | -25.93968 | 151.99606 | 19111 ft | 344 kts | 142° |
| 2026-04-20 04:21 | -25.95783 | 152.01315 | 19115 ft | 344 kts | 142° |
| 2026-04-20 04:22 | -25.97625 | 152.03050 | 19112 ft | 345 kts | 142° |
| 2026-04-20 04:22 | -25.99448 | 152.04768 | 19114 ft | 345 kts | 142° |
| 2026-04-20 04:22 | -26.01293 | 152.06508 | 19108 ft | 346 kts | 143° |
| 2026-04-20 04:22 | -26.03132 | 152.08243 | 19102 ft | 346 kts | 143° |
| 2026-04-20 04:23 | -26.04952 | 152.09959 | 19117 ft | 346 kts | 143° |
| 2026-04-20 04:23 | -26.06818 | 152.11720 | 19119 ft | 346 kts | 142° |
| 2026-04-20 04:23 | -26.08653 | 152.13454 | 19109 ft | 346 kts | 143° |
| 2026-04-20 04:23 | -26.10501 | 152.15198 | 19109 ft | 346 kts | 143° |
| 2026-04-20 04:24 | -26.12331 | 152.16928 | 19113 ft | 346 kts | 143° |
| 2026-04-20 04:24 | -26.14163 | 152.18661 | 19119 ft | 346 kts | 143° |
| 2026-04-20 04:24 | -26.16013 | 152.20412 | 19115 ft | 346 kts | 142° |
| 2026-04-20 04:24 | -26.17844 | 152.22145 | 19117 ft | 346 kts | 142° |
| 2026-04-20 04:25 | -26.19703 | 152.23904 | 19120 ft | 347 kts | 142° |
| 2026-04-20 04:25 | -26.21546 | 152.25652 | 19121 ft | 347 kts | 143° |
| 2026-04-20 04:25 | -26.23370 | 152.27379 | 19123 ft | 347 kts | 142° |
| 2026-04-20 04:25 | -26.25222 | 152.29135 | 19127 ft | 347 kts | 142° |
| 2026-04-20 04:26 | -26.27074 | 152.30891 | 19124 ft | 347 kts | 142° |
| 2026-04-20 04:26 | -26.28910 | 152.32634 | 19125 ft | 347 kts | 142° |
| 2026-04-20 04:26 | -26.30733 | 152.34364 | 19125 ft | 347 kts | 142° |
| 2026-04-20 04:26 | -26.32593 | 152.36131 | 19115 ft | 347 kts | 143° |
| 2026-04-20 04:27 | -26.34436 | 152.37882 | 19114 ft | 347 kts | 142° |
| 2026-04-20 04:27 | -26.36255 | 152.39612 | 19124 ft | 347 kts | 143° |
| 2026-04-20 04:27 | -26.38101 | 152.41367 | 19126 ft | 347 kts | 143° |
| 2026-04-20 04:27 | -26.39950 | 152.43126 | 19124 ft | 347 kts | 143° |
| 2026-04-20 04:28 | -26.41801 | 152.44888 | 19119 ft | 347 kts | 142° |
| 2026-04-20 04:28 | -26.43670 | 152.46668 | 19122 ft | 347 kts | 143° |
| 2026-04-20 04:28 | -26.45497 | 152.48408 | 19120 ft | 347 kts | 143° |
| 2026-04-20 04:28 | -26.47350 | 152.50174 | 19119 ft | 347 kts | 143° |
| 2026-04-20 04:29 | -26.49177 | 152.51915 | 19124 ft | 347 kts | 143° |
| 2026-04-20 04:29 | -26.51028 | 152.53682 | 19114 ft | 348 kts | 143° |
| 2026-04-20 04:29 | -26.52855 | 152.55425 | 19120 ft | 348 kts | 143° |
| 2026-04-20 04:29 | -26.54745 | 152.57228 | 19113 ft | 348 kts | 143° |
| 2026-04-20 04:30 | -26.56582 | 152.58983 | 19118 ft | 348 kts | 143° |
| 2026-04-20 04:30 | -26.58433 | 152.60751 | 19121 ft | 348 kts | 143° |
| 2026-04-20 04:30 | -26.60282 | 152.62518 | 19127 ft | 348 kts | 143° |
| 2026-04-20 04:30 | -26.62140 | 152.64296 | 19121 ft | 349 kts | 143° |
| 2026-04-20 04:31 | -26.63986 | 152.66061 | 19117 ft | 349 kts | 143° |
| 2026-04-20 04:31 | -26.65895 | 152.67677 | 19123 ft | 346 kts | 148° |
| 2026-04-20 04:31 | -26.67918 | 152.69177 | 19123 ft | 346 kts | 150° |
| 2026-04-20 04:31 | -26.69867 | 152.70668 | 19092 ft | 327 kts | 147° |
| 2026-04-20 04:32 | -26.71657 | 152.72069 | 19093 ft | 306 kts | 148° |
| 2026-04-20 04:32 | -26.73366 | 152.73381 | 19093 ft | 289 kts | 148° |
| 2026-04-20 04:32 | -26.74987 | 152.74620 | 19095 ft | 273 kts | 148° |
| 2026-04-20 04:32 | -26.76518 | 152.75786 | 19103 ft | 258 kts | 148° |
| 2026-04-20 04:33 | -26.77949 | 152.76872 | 19099 ft | 243 kts | 149° |
| 2026-04-20 04:33 | -26.79313 | 152.77908 | 19093 ft | 228 kts | 148° |
| 2026-04-20 04:33 | -26.80568 | 152.78908 | 19082 ft | 212 kts | 147° |
| 2026-04-20 04:33 | -26.81727 | 152.79822 | 19068 ft | 193 kts | 149° |
| 2026-04-20 04:34 | -26.82812 | 152.80600 | 19066 ft | 184 kts | 158° |
| 2026-04-20 04:34 | -26.83963 | 152.81290 | 19110 ft | 193 kts | 156° |
| 2026-04-20 04:34 | -26.85164 | 152.82074 | 19126 ft | 205 kts | 154° |
| 2026-04-20 04:34 | -26.86415 | 152.82933 | 19128 ft | 217 kts | 153° |
| 2026-04-20 04:35 | -26.87740 | 152.83865 | 19127 ft | 231 kts | 152° |
| 2026-04-20 04:35 | -26.89126 | 152.84833 | 19159 ft | 241 kts | 155° |
| 2026-04-20 04:35 | -26.90652 | 152.85753 | 19118 ft | 256 kts | 157° |
| 2026-04-20 04:35 | -26.92304 | 152.86690 | 19080 ft | 269 kts | 160° |
| 2026-04-20 04:36 | -26.96136 | 152.87311 | 18684 ft | 288 kts | 178° |
| 2026-04-20 04:36 | -26.98113 | 152.87460 | 18311 ft | 288 kts | 179° |
| 2026-04-20 04:36 | -27.00123 | 152.87596 | 17929 ft | 289 kts | 178° |
| 2026-04-20 04:37 | -27.02134 | 152.87740 | 17565 ft | 289 kts | 178° |
| 2026-04-20 04:37 | -27.04155 | 152.87888 | 17191 ft | 289 kts | 178° |
| 2026-04-20 04:37 | -27.06160 | 152.88036 | 16781 ft | 291 kts | 178° |
| 2026-04-20 04:37 | -27.08189 | 152.88188 | 16364 ft | 292 kts | 178° |
| 2026-04-20 04:38 | -27.10224 | 152.88342 | 15946 ft | 293 kts | 178° |
| 2026-04-20 04:38 | -27.12250 | 152.88544 | 15525 ft | 295 kts | 173° |
| 2026-04-20 04:38 | -27.14264 | 152.89043 | 15098 ft | 296 kts | 168° |
| 2026-04-20 04:38 | -27.16265 | 152.89619 | 14676 ft | 296 kts | 168° |
| 2026-04-20 04:39 | -27.18249 | 152.90196 | 14195 ft | 293 kts | 167° |
| 2026-04-20 04:39 | -27.20208 | 152.90768 | 13676 ft | 288 kts | 167° |
| 2026-04-20 04:39 | -27.22149 | 152.91330 | 13142 ft | 284 kts | 167° |
| 2026-04-20 04:39 | -27.24053 | 152.91878 | 12619 ft | 280 kts | 168° |
| 2026-04-20 04:40 | -27.25934 | 152.92418 | 12111 ft | 277 kts | 167° |
| 2026-04-20 04:40 | -27.27775 | 152.92946 | 11603 ft | 274 kts | 167° |
| 2026-04-20 04:40 | -27.29631 | 152.93393 | 11081 ft | 270 kts | 175° |
| 2026-04-20 04:40 | -27.31496 | 152.93362 | 10560 ft | 266 kts | 184° |
| 2026-04-20 04:41 | -27.33333 | 152.93211 | 10033 ft | 263 kts | 185° |
| 2026-04-20 04:41 | -27.35158 | 152.93059 | 9525 ft | 261 kts | 185° |
| 2026-04-20 04:41 | -27.36971 | 152.92908 | 9011 ft | 259 kts | 184° |
| 2026-04-20 04:41 | -27.38748 | 152.92763 | 8503 ft | 257 kts | 184° |
| 2026-04-20 04:42 | -27.40537 | 152.92619 | 7984 ft | 256 kts | 184° |
| 2026-04-20 04:42 | -27.42317 | 152.92477 | 7464 ft | 255 kts | 184° |
| 2026-04-20 04:42 | -27.44092 | 152.92337 | 6952 ft | 254 kts | 184° |
| 2026-04-20 04:42 | -27.45850 | 152.92198 | 6509 ft | 251 kts | 184° |
| 2026-04-20 04:43 | -27.47572 | 152.92064 | 6167 ft | 244 kts | 184° |
| 2026-04-20 04:43 | -27.49249 | 152.91933 | 5838 ft | 237 kts | 184° |
| 2026-04-20 04:43 | -27.50872 | 152.91812 | 5518 ft | 231 kts | 182° |
| 2026-04-20 04:43 | -27.52434 | 152.92052 | 5187 ft | 226 kts | 162° |
| 2026-04-20 04:44 | -27.53898 | 152.92676 | 4870 ft | 221 kts | 159° |
| 2026-04-20 04:44 | -27.55327 | 152.93312 | 4548 ft | 217 kts | 158° |
| 2026-04-20 04:44 | -27.56691 | 152.94017 | 4224 ft | 213 kts | 145° |
| 2026-04-20 04:44 | -27.57486 | 152.95342 | 3890 ft | 209 kts | 103° |
| 2026-04-20 04:45 | -27.57569 | 152.96959 | 3594 ft | 205 kts | 92° |
| 2026-04-20 04:45 | -27.57549 | 152.98549 | 3283 ft | 202 kts | 91° |
| 2026-04-20 04:45 | -27.57517 | 153.00102 | 3092 ft | 192 kts | 91° |
| 2026-04-20 04:45 | -27.57331 | 153.01531 | 2978 ft | 178 kts | 64° |
| 2026-04-20 04:46 | -27.56469 | 153.02402 | 2930 ft | 156 kts | 31° |
| 2026-04-20 04:46 | -27.55553 | 153.02960 | 2667 ft | 149 kts | 40° |
| 2026-04-20 04:46 | -27.54837 | 153.03780 | 2106 ft | 152 kts | 39° |
| 2026-04-20 04:46 | -27.53875 | 153.04279 | 1660 ft | 149 kts | 45° |
| 2026-04-20 04:47 | -27.53084 | 153.04961 | 1136 ft | 163 kts | 358° |
| 2026-04-20 04:47 | -27.52790 | 153.04808 | 281 ft | 0 kts | 292° |